Pagrindinis puslapis
METAR-TAF:

METAR-TAF

Oro uostai :

Farnborough, Anglija

platuma: 51-17N, ilguma: 000-46W, Aukštis: 65 m

Dabartinis oras

Ataskaita buvo paskelbta 42 minutes, ne 23:50 UTC
Vėjas 5 kt iš Rytų/Šiaurės Rytų
Temperatūra 9°C
Drėgmė 76%
Slėgis 1025 hPa
Matomumas 10 km arba daugiau

METAR: EGLF 092350Z AUTO 07005KT 9999 NCD 09/05 Q1025

Laikas: 01:32 (00:32 UTC)

Prognozė

Ataskaita buvo paskelbta 4 valandos ir 28 minutes, ne 20:04 UTC
Prognozė galioja nuo 09 metu 21 UTC su 09 metu 23 UTC
Vėjas 5 kt iš Šiaurės
Matomumas 10 km arba daugiau
nėra debesų žemiau 1500 m ir nėra kamuolinių lietaus debesų
Tikimybė 30%
nuo 09 metu 21 UTC su 09 metu 23 UTC
Matomumas: 8000 m

TAF: EGLF 092004Z 0921/0923 01005KT CAVOK PROB30 0921/0923 8000

Orai ataskaitas ir orų prognozės (METAR, TAF).

turimą stotys yra geltonos ir raudonos taškus žemėlapyje.

Perkelti pele per norėdami pamatyti stoties vardą.

Tada spustelėkite, norėdami matyti oro stebėjimo ir prognozės.

Norėdami pakeisti žemėlapį: spustelėkite ant žalios mygtukų su juodo kryžiaus žemyn,; žalią mygtuką su brūkšneliu, jei norite nutolinti; arba žalių rodyklių gretimoms žemėlapius.


METAR-TAF: